Tiempo atmosférico en la estación meteorológica de Bielsa, Huesca (990 m.)



Fecha
DESCASC
Temp. máxima en grados centígrados (hora)
DESCASC
Temp. mínima en grados centígrados (hora)
DESCASC
Temp. media en grados centígrados
DESCASC
Racha de viento máxima en m/sg (hora)
DESCASC
Velocidad máxima media en intervalos de 10 minutos(hora)
DESCASC
Precipitaciones diarias en mm
DESCASC
Precipitaciones de 00:00 a 06:00 en mm
DESCASC
Precipitaciones de 06:00 a 12:00 en mm
DESCASC
Precipitaciones de 12:00 a 18:00 en mm
DESCASC
Precipitaciones de 18:00 a 24:00 en mm
DESCASC
10-07-2020 30.4 (14:00) 14.9 (07:10) 22.6 8.61 (14:40) 3.06 (14:40) 3.4 0 0 1.4 2
09-07-2020 31.5 (15:40) 14.8 (07:30) 23.2 8.61 (13:00) 3.06 (08:50) 0 0 0 0 0
08-07-2020 31.8 (17:50) 12 (06:40) 21.9 10 (21:20) 3.33 (21:20) 0 0 0 0 0
07-07-2020 29 (17:00) 8.4 (07:40) 18.7 10.56 (14:50) 4.17 (16:00) 0 0 0 0 0
06-07-2020 30.8 (16:10) 10.7 (00:00) 20.7 15.28 (18:00) 5 (17:00) 0 0 0 0 0
05-07-2020 30.7 (18:50) 9.9 (00:00) 20.3 10 (13:10) 4.17 (21:30) 0 0 0 0 0
04-07-2020 28 (18:10) 7.4 (00:00) 17.7 11.11 (14:30) 3.33 (12:50) 0 0 0 0 0
03-07-2020 25.9 (18:30) 10.8 (07:30) 18.3 8.89 (13:50) 3.61 (13:50) 0.2 0.2 0 0 0
02-07-2020 24.7 (18:30) 13.7 (00:00) 19.2 7.5 (10:10) 2.5 (14:30) 2.8 0 0.2 2.6 0
01-07-2020 28.2 (17:50) 14.3 (00:00) 21.3 10 (00:30) 4.17 (00:30) 0.2 0.2 0 0 0
30-06-2020 29.4 (15:40) 16.5 (00:00) 22.9 10.56 (14:10) 3.89 (14:00) 0 0 0 0 0
29-06-2020 27.3 (14:00) 15.9 (00:00) 21.6 8.06 (18:20) 2.78 (18:40) 0.8 0.8 0 0 0
28-06-2020 26.4 (14:40) 13.9 (00:00) 20.1 7.78 (16:30) 2.78 (16:40) 0 0 0 0 0
27-06-2020 27.4 (17:10) 10.1 (00:00) 18.8 8.61 (13:00) 2.5 (13:10) 0 0 0 0 0
26-06-2020 26.2 (14:00) 12.6 (00:00) 19.4 10 (23:20) 3.89 (23:20) 12 6 0 1 5
25-06-2020 30.3 (17:20) 11.1 (00:00) 20.7 11.39 (19:10) 4.72 (18:50) 44.2 0.2 0 0 44
24-06-2020 30.5 (14:50) 12.6 (00:00) 21.6 8.89 (16:40) 2.78 (19:00) 16.2 0 0 9.4 6.8
23-06-2020 30 (16:10) 11.1 (00:00) 20.6 8.89 (13:20) 2.78 (12:50) 0 0 0 0 0
22-06-2020 29.5 (17:40) 11 (00:00) 20.3 10.83 (01:30) 4.44 (01:30) 0 0 0 0 0
21-06-2020 30 (17:00) 8.8 (00:00) 19.4 12.5 (21:10) 4.72 (19:00) 0 0 0 0 0
20-06-2020 26.5 (18:00) 9.4 (00:00) 17.9 8.61 (17:10) 3.33 (12:20) 0 0 0 0 0
19-06-2020 21.1 (13:50) 9.1 (00:00) 15.1 8.33 (13:00) 2.78 (15:00) 0.4 0 0.4 0 0
18-06-2020 22 (17:40) 7.4 (00:00) 14.7 8.33 (14:00) 2.22 (14:00) 0.2 0 0.2 0 0
17-06-2020 17.2 (13:20) 6 (00:00) 11.6 8.33 (11:30) 3.33 (11:40) 8 0 0 8 0
16-06-2020 17.1 (16:30) 9.4 (00:00) 13.3 10.28 (17:10) 3.33 (15:50) 5.6 0 0.6 5 0

Gráficas

Temp. máximas Temp. mínimas Temp. medias Precipitaciones Rachas de viento máximas Velocidades máximas media en intervalos de 10 minutos

Datos horarios

Fecha y hora oficial Temperatura (ºC) Velocidad del viento (km/h) Dirección del viento Racha (km/h) Dirección de racha Precipitación (mm) Presión (hPa) Tendencia (hPa) Humedad (%)
2020-07-15 23:00:00 15.9 6 Noroeste 34 Noroeste 0 907.8 1.3 62
2020-07-15 22:00:00 17.1 11 Noroeste 35 Noroeste 0 907.3 1.2 55
2020-07-15 21:00:00 17.9 12 Noroeste 37 Noroeste 0 906.7 1.3 53
2020-07-15 20:00:00 19.7 12 Noroeste 36 Norte 0 906.5 0.9 46
2020-07-15 19:00:00 20.7 17 Noroeste 44 Noroeste 0 906.1 0.2 44
2020-07-15 18:00:00 22.9 19 Noroeste 39 Noroeste 0 905.4 -0.1 31
2020-07-15 17:00:00 20.3 6 Este 17 Este 0 905.6 0 61
2020-07-15 16:00:00 20.2 5 Sudeste 18 Sur 0 905.9 -- 63
2020-07-15 15:00:00 22.2 6 Sudeste 30 Sur 0 905.5 -- 54
2020-07-15 14:00:00 23.9 12 Sudeste 32 Este 0 905.6 -- 47
2020-07-15 13:00:00 22.6 7 Sudeste 33 Sur 0 905.7 -- 53
2020-07-15 12:00:00 19.8 9 Sudeste 27 Sur 0 905.8 -- 63
2020-07-15 11:00:00 19.4 9 Sur 18 Sur 0 905.8 -- 61
2020-07-15 10:00:00 17 3 Sudeste 9 Este 0 905.8 -- 74
2020-07-15 09:00:00 14 0 Calma 14 Sudoeste 0 905.7 -- 89
2020-07-15 08:00:00 12.6 0 Calma 8 Noroeste 0 905.8 -- 92
2020-07-15 07:00:00 11.4 0 Calma 6 Noroeste 0 905.4 -- 94
2020-07-15 06:00:00 11.3 0 Calma 11 Norte 0 905.4 -- 94
2020-07-15 05:00:00 10.6 3 Norte 6 Norte 0 905.4 -- 95
2020-07-15 04:00:00 11 2 Noroeste 7 Noroeste 0 905.6 -- 93
2020-07-15 03:00:00 11.8 2 Noroeste 8 Noroeste 0 905.9 -- 92
2020-07-15 02:00:00 12.3 2 Norte 9 Noroeste 0 906.1 -- 89
2020-07-15 01:00:00 13.2 0 Calma 7 Oeste 0 906.4 -- 89
2020-07-15 00:00:00 13.9 0 Calma 17 Nordeste 0 906.2 -- 91
2020-07-14 23:00:00 14.3 0 Calma 5 Noroeste 0 906.2 -- 91
2020-07-14 22:00:00 15.1 0 Calma 13 Este 0 905.6 -- 89
2020-07-14 21:00:00 16.3 2 Norte 16 Sudeste 0 905.1 -- 82
2020-07-14 20:00:00 17.7 4 Este 14 Sur 0 904.9 -- 79
2020-07-14 19:00:00 18.9 3 Sudeste 17 Sur 0 904.2 -- 77
2020-07-14 18:00:00 19.9 6 Sudeste 20 Sur 0 904 -- 67
2020-07-14 17:00:00 20.2 4 Sudeste 26 Sudeste 0 904.3 -- 70
2020-07-14 16:00:00 22.1 9 Este 26 Sudeste 0 904.1 -- 56
2020-07-14 15:00:00 24.7 8 Sudeste 27 Sur 0 903.9 -- 51
2020-07-14 14:00:00 25.4 10 Sudeste 27 Sur 0 904.2 -- 49
2020-07-14 13:00:00 24.8 6 Sudeste 25 Este 0 904.7 -- 50
2020-07-14 12:00:00 23.3 5 Este 26 Sur 0 905.2 -- 55
2020-07-14 11:00:00 20.7 4 Sudeste 14 Sur 0 905.7 -- 61
2020-07-14 10:00:00 16.2 0 Calma 5 Norte 0 906.3 -- 75
2020-07-14 09:00:00 -- -- -- -- -- -- -- -- --
2020-07-14 08:00:00 12.3 3 Noroeste 12 Noroeste 0 906.8 -- 85
2020-07-14 07:00:00 11.4 3 Noroeste 10 Norte 0 906.9 -- 92
2020-07-14 06:00:00 11.7 2 Noroeste 8 Norte 0 906.9 -- 92
2020-07-14 05:00:00 12.1 3 Noroeste 15 Norte 0 906.9 -- 91
2020-07-14 04:00:00 12.7 2 Noroeste 10 Norte 0 907.2 -- 90
2020-07-14 03:00:00 13.6 0 Calma 12 Norte 0 907.5 -- 87
2020-07-14 02:00:00 15.2 7 Norte 21 Norte 0 907.8 -- 78
2020-07-14 01:00:00 15.8 3 Noroeste 19 Noroeste 0 908.4 -- 79
2020-07-14 00:00:00 16.8 3 Noroeste 15 Noroeste 0 908.5 -- 74
2020-07-13 23:00:00 17.6 7 Noroeste 33 Noroeste 0 908.4 -- 69
2020-07-13 22:00:00 18.9 11 Noroeste 35 Noroeste 0 908.1 1.1 58
2020-07-13 21:00:00 19.7 13 Noroeste 44 Noroeste 0.2 907.7 0.8 58
2020-07-13 20:00:00 21 15 Noroeste 39 Noroeste 0 907.3 0.7 55
2020-07-13 19:00:00 21.2 12 Noroeste 49 Noroeste 0 907 0.5 56
2020-07-13 18:00:00 22.2 10 Noroeste 33 Noroeste 0 906.9 0 54
2020-07-13 17:00:00 24.6 4 Noroeste 18 Noroeste 0 906.6 -0.9 50
2020-07-13 16:00:00 26.8 6 Sudeste 31 Sur 0 906.5 -1.4 45
2020-07-13 15:00:00 27.9 6 Sudeste 26 Este 0 906.9 -1.4 45
2020-07-13 14:00:00 27.7 6 Sudeste 24 Sur 0 907.5 -1.1 47
2020-07-13 13:00:00 27.1 6 Este 18 Este 0 907.9 -1.2 45
2020-07-13 12:00:00 25.1 3 Sur 9 Este 0 908.3 -1.1 50
2020-07-13 11:00:00 20.8 3 Noroeste 8 Oeste 0 908.6 -1 62
2020-07-13 10:00:00 17 5 Noroeste 8 Noroeste 0 909.1 -0.4 83
2020-07-13 09:00:00 13.2 3 Noroeste 10 Noroeste 0 909.4 0.3 97
2020-07-13 08:00:00 12.2 3 Noroeste 13 Norte 0 909.6 0.9 97
2020-07-13 07:00:00 11.9 0 Calma 9 Norte 0 909.5 -- 97
2020-07-13 06:00:00 12.1 0 Calma 8 Sudoeste 0.2 909.1 -0.1 97
2020-07-13 05:00:00 12.5 2 Noroeste 9 Noroeste 0 908.7 -0.8 97
2020-07-13 04:00:00 13 0 Calma 20 Norte 0 908.9 -0.7 96
2020-07-13 03:00:00 13.6 4 Noroeste 19 Norte 0 909.2 -0.5 96
2020-07-13 02:00:00 13.8 3 Noroeste 17 Norte 0 909.5 -0.4 96
2020-07-13 01:00:00 14.5 6 Norte 21 Norte 0 909.6 -0.2 95
2020-07-13 00:00:00 14.9 2 Noroeste 15 Norte 0 909.7 -0.3 95
2020-07-12 23:00:00 15.5 8 Norte 22 Norte 0 909.9 1.4 94
2020-07-12 22:00:00 16.5 7 Norte 19 Norte 0 909.8 1.6 92
2020-07-12 21:00:00 17.7 7 Norte 21 Norte 0 910 1.8 90
2020-07-12 20:00:00 19.5 0 Calma 7 Noroeste 0 908.5 0.1 84
2020-07-12 19:00:00 23.4 2 Sudoeste 6 Sur 0 908.2 -1.6 66
2020-07-12 18:00:00 22.7 0 Calma 10 Noroeste 0 908.2 -3.1 74
2020-07-12 17:00:00 19.8 5 Noroeste 21 Norte 0 908.4 -1.4 76
2020-07-12 16:00:00 16.2 9 Norte 39 Noroeste 0 909.8 0.9 91
2020-07-12 15:00:00 15.2 3 Noroeste 40 Noroeste 0 911.3 -- 92
2020-07-12 14:00:00 20.2 3 Norte 22 Sudeste 0 909.8 0.6 85
2020-07-12 13:00:00 21.7 4 Este 18 Sudoeste 0 908.9 -- 77
2020-07-12 12:00:00 19.9 4 Norte 18 Noroeste 0 908.9 -- 87
2020-07-12 11:00:00 18.2 4 Noroeste 13 Este 0 909.2 -- 92
2020-07-12 10:00:00 20.9 2 Norte 7 Sudoeste 0 908 0 73
2020-07-12 09:00:00 16.3 0 Calma 9 Noroeste 0 908.3 -- 96
2020-07-12 08:00:00 14.7 2 Noroeste 15 Noroeste 0 908.1 -- 96
2020-07-12 07:00:00 14.4 3 Noroeste 12 Norte 0.2 908 -- 97
2020-07-12 06:00:00 14.3 0 Calma 6 Noroeste 0 907.9 -- 97
2020-07-12 05:00:00 14.2 2 Oeste 8 Noroeste 0 907.9 -- 97
2020-07-12 04:00:00 14.5 0 Calma 5 Noroeste 0 908.1 -- 96
2020-07-12 03:00:00 14.9 0 Calma 4 Noroeste 0 908.1 -- 96
2020-07-12 02:00:00 15.3 0 Calma 7 Noroeste 0 908.3 -- 95
2020-07-12 01:00:00 15.6 0 Calma 4 Norte 0.2 908.4 -- 94
2020-07-12 00:00:00 16.3 0 Calma 4 Noroeste 0 908 -- 93
2020-07-11 23:00:00 17.3 3 Norte 5 Noroeste 0 907.7 -- 90
2020-07-11 22:00:00 18.8 3 Noroeste 5 Norte 0 907.1 -- 86
2020-07-11 21:00:00 21.2 0 Calma 5 Oeste 0.2 906.7 -- 80
2020-07-11 20:00:00 23.4 0 Calma 15 Noroeste 0 906.2 -- 74
2020-07-11 19:00:00 23.4 0 Calma 8 Noroeste 0 906.3 -0.4 74
2020-07-11 18:00:00 23.9 0 Calma 5 Noroeste 0 906.6 -- 72
2020-07-11 17:00:00 24 3 Noroeste 7 Sur 0 906.6 -- 70
2020-07-11 16:00:00 25.2 5 Sudeste 19 Este 0 906.7 -- 52
2020-07-11 15:00:00 25.6 5 Sur 32 Sudeste 0.2 906.8 -- 52
2020-07-11 14:00:00 27.9 9 Sudeste 35 Sudeste 0 906.8 -- 44
2020-07-11 13:00:00 26.6 9 Sudeste 34 Este 0 907 -- 46
2020-07-11 12:00:00 24.8 9 Sudeste 32 Sur 0 907 -- 49
2020-07-11 11:00:00 23.1 3 Sur 13 Sudeste 0 907.1 -- 55
2020-07-11 10:00:00 19.1 2 Este 8 Noroeste 0 907.3 -- 82
2020-07-11 09:00:00 14.1 2 Norte 6 Noroeste 0.2 907.5 -- 97
2020-07-11 08:00:00 12.9 3 Noroeste 8 Noroeste 0 907.5 -- 97
2020-07-11 07:00:00 12.7 0 Calma 10 Noroeste 0 907.4 -- 96
2020-07-11 06:00:00 13 0 Calma 6 Noroeste 0 907.2 -- 96
2020-07-11 05:00:00 13.5 2 Oeste 12 Norte 0.2 907.1 -- 96
2020-07-11 04:00:00 13.8 0 Calma 3 Norte 0 907.3 -- 96
2020-07-11 03:00:00 14.4 3 Noroeste 10 Norte 0 907.4 -- 96
2020-07-11 02:00:00 14.9 2 Noroeste 9 Norte 0.2 907.5 0.4 96
2020-07-11 01:00:00 15 3 Noroeste 8 Noroeste 0 907.6 -- 95
2020-07-11 00:00:00 15.5 0 Calma 5 Noroeste 0.2 907.3 -- 94
2020-07-10 23:00:00 16.4 2 Noroeste 10 Norte 0 907.1 -- 92
2020-07-10 22:00:00 17.5 3 Noroeste 13 Norte 0.2 906.7 -- 90
2020-07-10 21:00:00 19.9 0 Calma 10 Noroeste 0.4 906 -- 81
2020-07-10 20:00:00 22.5 0 Calma 8 Nordeste 0.6 906 -- 76
2020-07-10 19:00:00 24.3 2 Sudoeste 16 Noroeste 0.6 905.5 -- 67
2020-07-10 18:00:00 21.8 5 Norte 27 Noroeste 0.2 905.8 -- 73
2020-07-10 17:00:00 19.9 6 Sudeste 13 Sur 0.6 906.2 -- 86
2020-07-10 16:00:00 19 4 Oeste 24 Sudeste 0.6 906.1 -- 86
2020-07-10 15:00:00 26.1 5 Este 31 Sur 0 905.1 -- 44
2020-07-10 14:00:00 29 6 Sudeste 27 Sur 0 904.9 -1 40
2020-07-10 13:00:00 28.3 8 Sudeste 26 Sudeste 0 905.1 -- 47
2020-07-10 12:00:00 26.7 5 Sudeste 16 Este 0 905.4 -- 52
2020-07-10 11:00:00 22.6 4 Este 13 Este 0 905.9 -0.4 69
2020-07-10 10:00:00 20.6 3 Nordeste 8 Noroeste 0 906.1 -- 74
2020-07-10 09:00:00 16.4 2 Este 6 Este 0 906.3 -- 89
2020-07-10 08:00:00 16.1 3 Sur 16 Norte 0 906.3 -- 87
2020-07-10 07:00:00 15 0 Calma 12 Norte 0 906.4 -- 90
2020-07-10 06:00:00 15.3 0 Calma 11 Norte 0 906.6 -- 89
2020-07-10 05:00:00 15.7 4 Noroeste 7 Norte 0 906.7 -- 89
2020-07-10 04:00:00 16.6 3 Noroeste 17 Norte 0 906.9 -- 85
2020-07-10 03:00:00 17.3 6 Noroeste 14 Noroeste 0 906.8 -- 78
2020-07-10 02:00:00 17 2 Norte 10 Noroeste 0 907.8 -- 78
2020-07-10 01:00:00 16.8 0 Calma 10 Norte 0 907.7 -- 76
2020-07-10 00:00:00 18.1 0 Calma 13 Noroeste 0 907.1 -- 73
2020-07-09 23:00:00 19.6 2 Oeste 12 Norte 0 906.9 -- 69
2020-07-09 22:00:00 21.4 6 Norte 19 Norte 0 906.3 -- 65
2020-07-09 21:00:00 23.3 0 Calma 4 Noroeste 0 906.1 -- 63
2020-07-09 20:00:00 25.6 0 Calma 12 Norte 0 906 -- 55
2020-07-09 19:00:00 28 6 Norte 22 Sudeste 0 905.6 -- 35
2020-07-09 18:00:00 31 4 Sur 18 Sudeste 0 906.1 -- 34
2020-07-09 17:00:00 28.7 3 Sudeste 26 Sur 0 906.3 -- 40
2020-07-09 16:00:00 31 6 Sudeste 25 Sudeste 0 906.6 -- 32
2020-07-09 15:00:00 30.5 9 Sudeste 27 Sur 0 907 -- 32
2020-07-09 14:00:00 30.6 6 Sudeste 27 Este 0 906.8 -- 31
2020-07-09 13:00:00 29.3 9 Sudeste 31 Este 0 907 -- 37
2020-07-09 12:00:00 28.5 4 Sudeste 16 Sudeste 0 907 -- 37
2020-07-09 11:00:00 25.1 4 Noroeste 10 Norte 0 907.3 -- 44
2020-07-09 10:00:00 22 3 Nordeste 8 Noroeste 0 908.2 -- 64
2020-07-09 09:00:00 17.8 6 Norte 24 Norte 0 907.9 -- 75
2020-07-09 08:00:00 15.3 2 Norte 11 Noroeste 0 908 -- 86
2020-07-09 07:00:00 15.2 3 Noroeste 11 Norte 0 906.9 -- 84
2020-07-09 06:00:00 15.8 4 Oeste 17 Norte 0 906.5 -- 81
2020-07-09 05:00:00 15.4 3 Noroeste 16 Norte 0 906.6 -- 84
2020-07-09 04:00:00 15.7 3 Noroeste 14 Norte 0 907.1 -- 83
2020-07-09 03:00:00 16.1 2 Noroeste 16 Noroeste 0 907.5 -- 81
2020-07-09 02:00:00 16.6 3 Noroeste 8 Noroeste 0 908.3 -- 80
2020-07-09 01:00:00 18.1 0 Calma 14 Noroeste 0 908.1 -- 74
2020-07-09 00:00:00 19.1 0 Calma 7 Noroeste 0 908.3 -- 70
2020-07-08 23:00:00 21.9 2 Noroeste 20 Sur 0 908 -- 60
2020-07-08 22:00:00 24.2 6 Sur 36 Sudeste 0 907.4 -- 47
2020-07-08 21:00:00 25.6 6 Sudeste 24 Este 0 905.7 -- 45
2020-07-08 20:00:00 27.6 6 Sur 28 Este 0 905.2 -- 39
2020-07-08 19:00:00 30 7 Sudeste 23 Sudeste 0 904.1 -- 35
2020-07-08 18:00:00 31.2 5 Sudeste 23 Sudeste 0 904.4 -- 33
2020-07-08 17:00:00 31.7 6 Sudeste 18 Sudeste 0 904.9 -- 33
2020-07-08 16:00:00 30.2 5 Sudeste 33 Este 0 905.5 -- 33
2020-07-08 15:00:00 29.3 10 Sudeste 29 Este 0 906.2 -- 34
2020-07-08 14:00:00 28.7 7 Sudeste 30 Este 0 906.4 -- 36
2020-07-08 13:00:00 27.1 8 Sudeste 24 Este 0 906.9 -- 36
2020-07-08 12:00:00 24.5 10 Sudeste 28 Este 0 907.2 -- 41
2020-07-08 11:00:00 23.3 3 Sudeste 9 Sudeste 0 906.8 -- 49
2020-07-08 10:00:00 18.9 3 Norte 6 Noroeste 0 906.9 -- 66
2020-07-08 09:00:00 13.5 0 Calma 9 Noroeste 0 907.1 -- 97
2020-07-08 08:00:00 12.1 0 Calma 8 Noroeste 0 906.9 -- 96
2020-07-08 07:00:00 12 2 Norte 5 Oeste 0 906.7 -- 96
2020-07-08 06:00:00 12.2 2 Noroeste 8 Oeste 0 906.6 -- 95
2020-07-08 05:00:00 12.5 0 Calma 5 Norte 0 906.9 -- 94
2020-07-08 04:00:00 12.9 0 Calma 5 Norte 0 906.9 -- 93
2020-07-08 03:00:00 13.4 0 Calma 5 Norte 0 907.1 -- 92
2020-07-08 02:00:00 14.2 0 Calma 5 Norte 0 907.2 -- 90
2020-07-08 01:00:00 15.1 0 Calma 5 Noroeste 0 906.8 -- 86
2020-07-08 00:00:00 16.2 2 Noroeste 4 Norte 0 906.7 -- 82
2020-07-07 23:00:00 17.8 3 Noroeste 9 Noroeste 0 906.2 -- 76
2020-07-07 22:00:00 20.1 3 Oeste 18 Sur 0 905.4 -- 67
2020-07-07 21:00:00 22.5 3 Sudeste 19 Este 0 904.7 -- 56
2020-07-07 20:00:00 25.2 5 Sudeste 28 Sur 0 904.4 0.4 47
2020-07-07 19:00:00 27.8 7 Sudeste 29 Sur 0 904.1 0.1 39
2020-07-07 18:00:00 27.6 8 Este 35 Sudeste 0 904.1 0.1 41
2020-07-07 17:00:00 29 8 Sudeste 35 Sudeste 0 904 -0.2 39
2020-07-07 16:00:00 28.1 15 Este 34 Este 0 904 -0.6 41
2020-07-07 15:00:00 27.8 10 Sudeste 38 Este 0 904 -0.8 41
2020-07-07 14:00:00 27.1 9 Este 33 Este 0 904.2 -0.8 41
2020-07-07 13:00:00 25.9 9 Sudeste 34 Sur 0 904.6 -0.8 36
2020-07-07 12:00:00 24.6 5 Sudeste 26 Sudoeste 0 904.8 -0.6 36
2020-07-07 11:00:00 21.6 4 Este 13 Este 0 905 -0.2 38
2020-07-07 10:00:00 16.2 3 Norte 8 Noroeste 0 905.4 0.1 51
2020-07-07 09:00:00 9.6 3 Norte 6 Norte 0 905.4 0.2 78
2020-07-07 08:00:00 8.4 0 Calma 10 Oeste 0 905.2 0 78
2020-07-07 07:00:00 8.5 0 Calma 8 Noroeste 0 905.3 -- 77
2020-07-07 06:00:00 9.1 0 Calma 6 Sudoeste 0 905.2 -- 74
2020-07-07 05:00:00 10.2 0 Calma 8 Noroeste 0 905.2 -- 73
2020-07-07 04:00:00 11.6 4 Oeste 12 Noroeste 0 905.5 -- 71
2020-07-07 03:00:00 13.3 2 Oeste 13 Noroeste 0 905.9 -- 68
2020-07-07 02:00:00 14.8 4 Noroeste 21 Norte 0 906.1 -- 67
2020-07-07 01:00:00 16.9 8 Norte 24 Norte 0 906.6 -- 61
2020-07-07 00:00:00 18.6 9 Norte 35 Noroeste 0 906.8 -- 56
2020-07-06 23:00:00 20.7 9 Noroeste 42 Noroeste 0 906.9 -- 47
2020-07-06 22:00:00 21.4 10 Noroeste 36 Noroeste 0 906.1 -- 49
2020-07-06 21:00:00 22.5 11 Noroeste 41 Noroeste 0 905.8 -- 47
2020-07-06 20:00:00 23.7 14 Noroeste 49 Noroeste 0 905.9 -- 45
2020-07-06 19:00:00 25.3 13 Noroeste 46 Noroeste 0 905.5 -- 40
2020-07-06 18:00:00 26.8 17 Noroeste 55 Noroeste 0 905.6 -- 36
2020-07-06 17:00:00 28.6 18 Noroeste 42 Noroeste 0 905.2 -- 30
2020-07-06 16:00:00 30.5 9 Noroeste 40 Noroeste 0 905.1 -- 25
2020-07-06 15:00:00 30.1 11 Norte 30 Noroeste 0 905.4 -- 25
2020-07-06 14:00:00 29.7 9 Sudeste 29 Este 0 905.8 -- 37
2020-07-06 13:00:00 28.3 9 Sudeste 31 Este 0 905.9 -- 35
2020-07-06 12:00:00 27.6 5 Sudeste 19 Este 0 906 -- 33
2020-07-06 11:00:00 24.2 7 Este 14 Este 0 906.5 -- 40
2020-07-06 10:00:00 19.3 0 Calma 5 Noroeste 0 907 -- 64
2020-07-06 09:00:00 12.6 2 Norte 6 Norte 0 907.3 -- 86
2020-07-06 08:00:00 10.7 2 Norte 15 Nordeste 0 907.6 -- 88
2020-07-06 07:00:00 10.7 0 Calma 4 Sudoeste 0 907.6 -- 85
2020-07-06 06:00:00 11.4 0 Calma 6 Oeste 0 907.6 -- 83
2020-07-06 05:00:00 12.2 3 Noroeste 11 Noroeste 0 907.7 -- 81
2020-07-06 04:00:00 13.3 3 Noroeste 15 Noroeste 0 908 -- 78
2020-07-06 03:00:00 13.9 0 Calma 10 Noroeste 0 908.5 -- 77
2020-07-06 02:00:00 15.3 3 Oeste 18 Norte 0 908.9 -- 72
2020-07-06 01:00:00 17.1 5 Noroeste 15 Norte 0 909 -- 64
2020-07-06 00:00:00 17.5 2 Norte 9 Sudeste 0 908.9 -- 67
2020-07-05 23:00:00 19.9 4 Sur 28 Noroeste 0 908.5 -- 57
2020-07-05 22:00:00 22.9 9 Noroeste 33 Noroeste 0 907.8 -- 45
2020-07-05 21:00:00 22.8 9 Norte 24 Noroeste 0 907.4 -- 42
2020-07-05 20:00:00 27 9 Noroeste 28 Noroeste 0 907.2 -- 30
2020-07-05 19:00:00 30.5 3 Oeste 14 Noroeste 0 907.1 -- 26
2020-07-05 18:00:00 30.4 5 Sur 32 Sur 0 907.3 -- 35
2020-07-05 17:00:00 30.2 8 Sudeste 30 Sur 0 907.5 -- 35
2020-07-05 16:00:00 29.8 9 Sudeste 28 Sudeste 0 907.8 -- 36
2020-07-05 15:00:00 29.5 8 Sudeste 28 Este 0 908.2 -- 30
2020-07-05 14:00:00 28.5 8 Sudeste 36 Este 0 908.6 -- 31
2020-07-05 13:00:00 27.3 8 Sudeste 27 Sudeste 0 909.1 -- 32
2020-07-05 12:00:00 25.9 7 Sudeste 26 Sudeste 0 909.3 -- 36
2020-07-05 11:00:00 22.9 8 Este 17 Este 0 909.6 -- 42
2020-07-05 10:00:00 18.5 3 Norte 17 Nordeste 0 909.9 -- 60
2020-07-05 09:00:00 12.2 0 Calma 9 Noroeste 0 909.8 -- 87
2020-07-05 08:00:00 10.2 2 Noroeste 14 Sudoeste 0 909.9 -- 88
2020-07-05 07:00:00 9.9 2 Noroeste 9 Noroeste 0 910.1 -- 87
2020-07-05 06:00:00 9.9 2 Noroeste 10 Noroeste 0 910.1 -- 86
2020-07-05 05:00:00 10.1 0 Calma 7 Noroeste 0 910 -- 86
2020-07-05 04:00:00 10.5 0 Calma 5 Oeste 0 910.4 -- 85
2020-07-05 03:00:00 11.3 0 Calma 10 Noroeste 0 910.9 -- 79
2020-07-05 02:00:00 11.9 3 Noroeste 9 Noroeste 0 911.3 -- 78
2020-07-05 01:00:00 13 2 Sudoeste 11 Noroeste 0 911.1 -- 74
2020-07-05 00:00:00 13.7 2 Noroeste 8 Noroeste 0 911.1 -- 75
2020-07-04 23:00:00 15 0 Calma 5 Norte 0 910.7 -- 77
2020-07-04 22:00:00 16.9 2 Norte 6 Noroeste 0 909.9 -- 76
2020-07-04 21:00:00 19.6 2 Noroeste 5 Oeste 0 909.4 -- 66
2020-07-04 20:00:00 23.2 0 Calma 15 Sur 0 908.6 -- 56
2020-07-04 19:00:00 26.8 7 Sudeste 23 Sur 0 908.3 -- 41
2020-07-04 18:00:00 27.6 6 Sudeste 28 Este 0 908.2 -- 40
2020-07-04 17:00:00 26.9 10 Sudeste 29 Sudeste 0 908.3 -- 42
2020-07-04 16:00:00 27.2 7 Sudeste 32 Este 0 908.6 -- 40
2020-07-04 15:00:00 26.2 8 Sudeste 40 Este 0 908.7 -- 42
2020-07-04 14:00:00 25.2 9 Sudeste 30 Este 0 908.8 -- 44
2020-07-04 13:00:00 24.3 8 Sudeste 33 Sur 0 909 -- 45
2020-07-04 12:00:00 22.8 7 Sudeste 24 Sur 0 909 -- 47
2020-07-04 11:00:00 20 3 Este 9 Este 0 908.9 -- 45
2020-07-04 10:00:00 15 2 Norte 6 Norte 0 909.4 -- 61
2020-07-04 09:00:00 8.8 4 Norte 10 Noroeste 0 909.3 -- 89
2020-07-04 08:00:00 7.5 0 Calma 8 Norte 0 909.5 -- 92
2020-07-04 07:00:00 7.6 0 Calma 11 Norte 0 909.4 -- 91
2020-07-04 06:00:00 8 0 Calma 7 Noroeste 0 909 -- 90
2020-07-04 05:00:00 8.7 0 Calma 9 Norte 0 909 -- 88
2020-07-04 04:00:00 9.5 0 Calma 7 Oeste 0 909 -- 88
2020-07-04 03:00:00 10.5 2 Oeste 12 Norte 0 909 -- 83
2020-07-04 02:00:00 11 3 Oeste 12 Noroeste 0 909 -- 85
2020-07-04 01:00:00 12 2 Noroeste 11 Noroeste 0 909 -- 83
2020-07-04 00:00:00 12.9 2 Oeste 9 Noroeste 0 908.8 -- 82
2020-07-03 23:00:00 14.4 2 Norte 8 Noroeste 0 908.2 -- 77
2020-07-03 22:00:00 16.6 2 Este 9 Noroeste 0 907.1 -- 70
2020-07-03 21:00:00 19.1 3 Noroeste 7 Sur 0 906.6 -- 72
2020-07-03 20:00:00 22.4 0 Calma 25 Este 0 906 -- 55
2020-07-03 19:00:00 25.6 6 Sudeste 24 Este 0 905.6 -- 44
2020-07-03 18:00:00 25.6 8 Sudeste 26 Este 0 905.8 -- 44
2020-07-03 17:00:00 25.6 8 Sudeste 30 Sudeste 0 905.8 -- 46
2020-07-03 16:00:00 24.6 9 Sudeste 28 Sudeste 0 906 -- 50
2020-07-03 15:00:00 23.1 10 Sudeste 32 Sur 0 906.1 -- 52
2020-07-03 14:00:00 23.9 11 Sudeste 32 Sur 0 906.2 -- 51
2020-07-03 13:00:00 23.5 9 Sudeste 29 Este 0 906.3 -- 50
2020-07-03 12:00:00 22.4 9 Este 24 Este 0 906.6 -- 51
2020-07-03 11:00:00 20.9 5 Sudeste 14 Este 0 906.5 -- 49
2020-07-03 10:00:00 17.8 3 Este 6 Este 0 906.5 -- 62
2020-07-03 09:00:00 12.3 2 Nordeste 10 Noroeste 0 906.8 -- 90
2020-07-03 08:00:00 11.1 3 Noroeste 12 Norte 0 906.8 -- 89
2020-07-03 07:00:00 11.1 0 Calma 14 Sudeste 0 906.6 -- 90
2020-07-03 06:00:00 12.1 6 Norte 22 Noroeste 0 906.5 -- 86
2020-07-03 05:00:00 12.3 0 Calma 16 Noroeste 0 906.2 -- 89
2020-07-03 04:00:00 13.1 3 Norte 23 Norte 0 906 -- 85
2020-07-03 03:00:00 13.2 2 Nordeste 7 Noroeste 0.2 906 -- 94
2020-07-03 02:00:00 13.7 3 Noroeste 6 Norte 0 905.9 -- 94
2020-07-03 01:00:00 14.3 0 Calma 6 Este 0 905.7 -- 90
2020-07-03 00:00:00 14.8 2 Norte 9 Norte 0 905.4 -- 86
2020-07-02 23:00:00 15.8 0 Calma 21 Noroeste 0 905 -- 79
2020-07-02 22:00:00 17.1 3 Sudeste 9 Sudoeste 0 904.3 -- 82
2020-07-02 21:00:00 19.6 0 Calma 10 Noroeste 0 903.8 -- 72
2020-07-02 20:00:00 21.6 5 Noroeste 20 Noroeste 0 903.3 -- 55
2020-07-02 19:00:00 23.6 3 Oeste 17 Este 0 902.9 -- 66
2020-07-02 18:00:00 23.8 6 Sudeste 22 Sudeste 0.2 903.1 -- 62
2020-07-02 17:00:00 23.2 8 Sudeste 25 Este 0.2 903.3 -- 63
2020-07-02 16:00:00 22 4 Este 18 Este 0.8 904 -- 79
2020-07-02 15:00:00 22.2 7 Sudeste 24 Sur 0.6 904.1 -- 68
2020-07-02 14:00:00 21.6 6 Sudeste 17 Sur 0.6 904.7 -- 76
2020-07-02 13:00:00 19.9 2 Sur 22 Sur 0.2 904.8 -- 89
2020-07-02 12:00:00 19.2 6 Sudeste 22 Sudeste 0.2 904.9 -- 81
2020-07-02 11:00:00 20.5 6 Sudeste 27 Este 0 904.3 -- 68
2020-07-02 10:00:00 20.4 5 Sudeste 25 Este 0 904.3 -- 70
2020-07-02 09:00:00 17.1 2 Oeste 8 Sur 0 904.3 -- 90
2020-07-02 08:00:00 14.7 0 Calma 4 Norte 0 904.2 -- 94
2020-07-02 07:00:00 14.2 0 Calma 5 Norte 0 903.8 -- 94
2020-07-02 06:00:00 14.4 2 Nordeste 7 Norte 0 903.8 -- 93
2020-07-02 05:00:00 13.8 0 Calma 6 Nordeste 0 903.3 -- 93
2020-07-02 04:00:00 14.2 0 Calma 4 Norte 0 903.3 -- 91
2020-07-02 03:00:00 14.8 2 Noroeste 8 Noroeste 0 903.5 -- 89
2020-07-02 02:00:00 14.9 3 Noroeste 10 Noroeste 0 903.7 -- 89
2020-07-02 01:00:00 15.2 0 Calma 8 Oeste 0 903.6 -- 87
2020-07-02 00:00:00 16.1 0 Calma 13 Sudoeste 0 903.3 -- 83
2020-07-01 23:00:00 17.2 4 Noroeste 12 Norte 0 903 -- 81
2020-07-01 22:00:00 18 2 Noroeste 6 Norte 0 902.4 -- 81
2020-07-01 21:00:00 20.3 0 Calma 6 Noroeste 0 902.1 -- 73
2020-07-01 20:00:00 24 0 Calma 6 Sudeste 0 901.5 -- 58
2020-07-01 19:00:00 27.8 0 Calma 6 Sudeste 0 901.1 -- 52
2020-07-01 18:00:00 27.1 0 Calma 10 Sur 0 901.3 -- 56
2020-07-01 17:00:00 25.3 0 Calma 14 Este 0 901.5 -- 63
2020-07-01 16:00:00 25.7 3 Este 27 Este 0 901.4 -- 52
2020-07-01 15:00:00 26.4 6 Sudeste 21 Sur 0 901.4 -- 50
2020-07-01 14:00:00 26.9 8 Sudeste 24 Sur 0 901.8 -- 45
2020-07-01 13:00:00 27.2 8 Sudeste 28 Este 0 901.6 -- 51
2020-07-01 12:00:00 25.7 8 Sudeste 35 Sudeste 0 902 -- 52
2020-07-01 11:00:00 24 5 Sudeste 14 Este 0 901.8 -- 62
2020-07-01 10:00:00 20.2 4 Norte 17 Norte 0 902.4 -- 77
2020-07-01 09:00:00 16.8 3 Noroeste 16 Norte 0 902.6 -- 89
2020-07-01 08:00:00 14.9 4 Noroeste 18 Norte 0 902.9 -- 92
2020-07-01 07:00:00 14.7 4 Noroeste 12 Noroeste 0 902.8 -- 93
2020-07-01 06:00:00 14.4 4 Norte 14 Norte 0 902.8 -- 95
2020-07-01 05:00:00 14.5 0 Calma 13 Noroeste 0 902.9 -- 93
2020-07-01 04:00:00 15.3 4 Noroeste 23 Norte 0 903 -- 90
2020-07-01 03:00:00 15.2 4 Noroeste 23 Norte 0 903.5 -- 92
2020-07-01 02:00:00 16.1 6 Noroeste 24 Norte 0.2 903.9 -- 87
2020-07-01 01:00:00 17.4 11 Noroeste 36 Noroeste 0 904.2 -- 81
2020-07-01 00:00:00 19.2 12 Norte 25 Norte 0 904 -- 86
2020-06-30 23:00:00 19.3 4 Sudoeste 21 Norte 0 903.4 -- 87
2020-06-30 22:00:00 20 4 Noroeste 18 Norte 0 903.2 -- 85
2020-06-30 21:00:00 21.1 3 Oeste 19 Norte 0 903 -- 76
2020-06-30 20:00:00 22 3 Noroeste 18 Noroeste 0 902.9 -- 70
2020-06-30 19:00:00 22.5 7 Noroeste 33 Noroeste 0 902.8 -- 57
2020-06-30 18:00:00 25.5 6 Noroeste 22 Este 0 903 -- 62
2020-06-30 17:00:00 27 4 Sudeste 26 Sur 0 902.8 -- 59
2020-06-30 16:00:00 28.8 9 Sudeste 30 Sur 0 902.9 -- 52
2020-06-30 15:00:00 28.5 9 Sudeste 38 Este 0 903 -- 53
2020-06-30 14:00:00 27 14 Este 36 Este 0 903.3 -- 56
2020-06-30 13:00:00 26 12 Sudeste 35 Este 0 903.9 -- 57
2020-06-30 12:00:00 24.6 12 Sudeste 36 Este 0 903.9 -- 64
2020-06-30 11:00:00 23.9 6 Sudeste 25 Sur 0 904.2 -- 68
2020-06-30 10:00:00 23.2 3 Sudeste 10 Sur 0 904.6 -- 68
2020-06-30 09:00:00 19.4 3 Norte 9 Norte 0 905 -- 82
2020-06-30 08:00:00 17.8 2 Oeste 13 Noroeste 0 905 -- 89
2020-06-30 07:00:00 16.9 0 Calma 14 Oeste 0 904.8 -- 90
2020-06-30 06:00:00 17.1 0 Calma 8 Norte 0 904.6 -- 90
2020-06-30 05:00:00 17.1 0 Calma 14 Norte 0 905 -- 89
2020-06-30 04:00:00 16.9 3 Noroeste 12 Norte 0 905.2 -- 88
2020-06-30 03:00:00 17 3 Noroeste 14 Norte 0 905.5 -- 87
2020-06-30 02:00:00 16.6 3 Norte 13 Sudoeste 0 905.9 -- 89
2020-06-30 01:00:00 16.6 3 Noroeste 10 Noroeste 0 906 -- 87
2020-06-30 00:00:00 16.7 3 Noroeste 9 Noroeste 0 905.8 -- 88
2020-06-29 23:00:00 16.8 3 Noroeste 11 Norte 0 905.5 -- 87
2020-06-29 22:00:00 18 3 Noroeste 7 Norte 0 904.7 -- 84
2020-06-29 21:00:00 20.8 0 Calma 8 Sudeste 0 904.5 -- 76
2020-06-29 20:00:00 23.5 2 Sudoeste 17 Este 0 904.2 -- 68
2020-06-29 19:00:00 24.7 5 Sudeste 29 Este 0 904.2 -- 60
2020-06-29 18:00:00 24 4 Este 23 Este 0 904.4 -- 62
2020-06-29 17:00:00 26.4 5 Sudeste 24 Sudeste 0 904.9 -- 56
2020-06-29 16:00:00 26 4 Sudeste 21 Sudeste 0 905.2 -- 59
2020-06-29 15:00:00 27.2 8 Sudeste 22 Sur 0 905.5 -- 56
2020-06-29 14:00:00 26.9 6 Sudeste 21 Este 0 905.9 -- 56
2020-06-29 13:00:00 23.3 8 Sudeste 23 Sur 0 906.2 -- 70
2020-06-29 12:00:00 22.9 8 Sudeste 28 Sudeste 0 906.1 -- 69
2020-06-29 11:00:00 21.4 4 Sudeste 12 Este 0 906.2 -- 79
2020-06-29 10:00:00 19.5 2 Este 12 Sur 0 906.5 -- 89
2020-06-29 09:00:00 17 3 Norte 10 Noroeste 0 906.9 -- 97
2020-06-29 08:00:00 16.3 2 Sur 6 Este 0 906.6 -- 97
2020-06-29 07:00:00 16 2 Este 8 Noroeste 0 906.5 -- 97
2020-06-29 06:00:00 16.4 4 Norte 13 Norte 0 906.4 -- 97
2020-06-29 05:00:00 16.4 3 Sur 18 Noroeste 0.4 906.2 -- 97
2020-06-29 04:00:00 16.3 4 Sudeste 18 Norte 0.4 906.5 -- 95
2020-06-29 03:00:00 16.2 3 Noroeste 13 Norte 0 906.6 -- 91
2020-06-29 02:00:00 16.3 0 Calma 12 Norte 0 907.1 -- 91
2020-06-29 01:00:00 16.4 3 Noroeste 9 Norte 0 907.4 -- 91
2020-06-29 00:00:00 16.2 3 Noroeste 10 Norte 0 907.4 -- 90
2020-06-28 23:00:00 17.2 3 Noroeste 13 Norte 0 907 -- 88
2020-06-28 22:00:00 18.2 2 Noroeste 10 Norte 0 906.6 -- 87
2020-06-28 21:00:00 20.8 2 Noroeste 16 Norte 0 906.2 -- 78
2020-06-28 20:00:00 21.9 3 Noroeste 15 Norte 0 906 -- 74
2020-06-28 19:00:00 24 6 Noroeste 16 Noroeste 0 906.1 -- 61
2020-06-28 18:00:00 23.6 6 Noroeste 19 Noroeste 0 906.3 -- 62
2020-06-28 17:00:00 24.4 7 Noroeste 28 Noroeste 0 906.5 -- 59
2020-06-28 16:00:00 24.5 5 Este 20 Sur 0 906.7 -0.8 52
2020-06-28 15:00:00 24.4 7 Sudeste 25 Sudeste 0 906.9 -- 47
2020-06-28 14:00:00 23.3 5 Sur 13 Sur 0 907.2 -- 65
2020-06-28 13:00:00 23.3 2 Noroeste 17 Noroeste 0 907.5 -- 59
2020-06-28 12:00:00 21.4 5 Noroeste 15 Noroeste 0 907.5 -- 71
2020-06-28 11:00:00 19.2 3 Sudeste 6 Sur 0 907.7 -- 80
2020-06-28 10:00:00 18 2 Sur 8 Norte 0 907.5 -- 83
2020-06-28 09:00:00 16.4 0 Calma 6 Sur 0 907.5 -- 89
2020-06-28 08:00:00 15.4 0 Calma 9 Este 0 907.1 -- 92
2020-06-28 07:00:00 14.8 0 Calma 6 Norte 0 907 -- 93
2020-06-28 06:00:00 14.7 3 Noroeste 6 Noroeste 0 906.9 -- 94
2020-06-28 05:00:00 14.6 3 Noroeste 9 Norte 0 906.8 -- 94
2020-06-28 04:00:00 14.3 2 Noroeste 5 Oeste 0 906.8 -- 94
2020-06-28 03:00:00 14 0 Calma 6 Noroeste 0 906.8 -- 93
2020-06-28 02:00:00 14.2 4 Noroeste 14 Norte 0 906.9 -- 93
2020-06-28 01:00:00 15 3 Oeste 12 Noroeste 0 906.8 -- 89
2020-06-28 00:00:00 15.5 2 Noroeste 13 Norte 0 906.8 -- 90
2020-06-27 23:00:00 16.7 2 Noroeste 13 Sudoeste 0 906.5 -- 87
2020-06-27 22:00:00 18.4 0 Calma 5 Oeste 0 905.5 -- 83
2020-06-27 21:00:00 19.9 0 Calma 4 Noroeste 0 904.9 -- 78
2020-06-27 20:00:00 20.7 3 Noroeste 7 Norte 0 904.7 -- 73
2020-06-27 19:00:00 23.7 0 Calma 18 Sur 0 904.4 -- 61
2020-06-27 18:00:00 25.1 0 Calma 16 Sudeste 0 904.6 -- 55
2020-06-27 17:00:00 27.1 5 Sudeste 23 Sur 0 904.4 -- 40
2020-06-27 16:00:00 26.1 6 Sudeste 27 Sudeste 0 904.5 -- 41
2020-06-27 15:00:00 26.6 8 Sudeste 26 Sudeste 0 904.6 -- 39
2020-06-27 14:00:00 26.2 6 Sudeste 26 Este 0 904.7 -- 41
2020-06-27 13:00:00 24.5 8 Sudeste 31 Este 0 904.9 -- 45
2020-06-27 12:00:00 23 7 Sudeste 24 Este 0 905.1 -- 48
2020-06-27 11:00:00 20.7 0 Calma 6 Este 0 905 -- 62
2020-06-27 10:00:00 16.5 0 Calma 4 Nordeste 0 905.3 -- 83
2020-06-27 09:00:00 12.7 0 Calma 11 Norte 0 905.5 -- 97
2020-06-27 08:00:00 10.9 0 Calma 10 Oeste 0 905.7 -- 97
2020-06-27 07:00:00 10.2 3 Noroeste 9 Noroeste 0 905.6 -- 97
2020-06-27 06:00:00 10.5 0 Calma 9 Noroeste 0 905.3 -- 97
2020-06-27 05:00:00 11 0 Calma 6 Sudoeste 0 905.4 -- 96
2020-06-27 04:00:00 11.6 0 Calma 7 Noroeste 0 905.2 -- 96
2020-06-27 03:00:00 12 3 Noroeste 14 Norte 0 905.1 -- 96
2020-06-27 02:00:00 12.9 0 Calma 17 Norte 0 905.2 -- 96
2020-06-27 01:00:00 13.2 6 Norte 21 Noroeste 0 905.4 -- 96
2020-06-27 00:00:00 13.7 4 Noroeste 36 Oeste 0 905.5 -- 95
2020-06-26 23:00:00 14.1 3 Noroeste 12 Oeste 0.4 905.7 -- 95
2020-06-26 22:00:00 14.5 2 Noroeste 23 Norte 1 904.7 -- 94
2020-06-26 21:00:00 15.6 0 Calma 15 Norte 1.8 905.8 -- 92
2020-06-26 20:00:00 16.6 3 Nordeste 27 Este 1.8 905.8 -- 87
2020-06-26 19:00:00 21.2 2 Sur 15 Norte 0 903.1 -- 78
2020-06-26 18:00:00 22.6 2 Noroeste 6 Norte 0 903.2 -- 77
2020-06-26 17:00:00 24.2 0 Calma 5 Sudoeste 0 903.6 -- 67
2020-06-26 16:00:00 24.2 2 Sudeste 17 Sudeste 0.6 904.3 -- 65
2020-06-26 15:00:00 23.9 5 Sudeste 19 Este 0.4 904.1 -- 58
2020-06-26 14:00:00 26.1 9 Sudeste 23 Sur 0 904.1 -- 45
2020-06-26 13:00:00 25 6 Sudeste 22 Sur 0 904.5 -- 50
2020-06-26 12:00:00 22.4 2 Sudeste 9 Este 0 904.7 -- 68
2020-06-26 11:00:00 21.2 2 Nordeste 6 Noroeste 0 905 -- 63
2020-06-26 10:00:00 16.4 2 Este 6 Noroeste 0 905.8 -- 90
2020-06-26 09:00:00 14.3 0 Calma 16 Norte 0 906.2 -- 94
2020-06-26 08:00:00 13.2 2 Noroeste 14 Norte 0 906.3 -- 97
2020-06-26 07:00:00 12.7 3 Noroeste 21 Norte 0 906.7 -- 97
2020-06-26 06:00:00 12.6 3 Noroeste 19 Noroeste 0 907.1 -- 96
2020-06-26 05:00:00 13 3 Noroeste 23 Norte 0 906.8 -- 96
2020-06-26 04:00:00 13.3 5 Norte 30 Noroeste 0.4 907.6 -- 96
2020-06-26 03:00:00 13.3 5 Noroeste 21 Norte 5.2 908.6 -- 97
2020-06-26 02:00:00 13.5 10 Norte 26 Norte 0 908 -- 96
2020-06-26 01:00:00 13.5 10 Norte 22 Norte 0.4 908.9 -- 96
2020-06-26 00:00:00 13.7 8 Norte 29 Oeste 11.4 910.2 -- 97
2020-06-25 23:00:00 13.6 9 Noroeste 31 Noroeste 24.2 910.4 -- 96
2020-06-25 22:00:00 14.5 4 Sudeste 29 Noroeste 7 908.7 -- 93
2020-06-25 21:00:00 14.7 13 Norte 37 Norte 0 907.3 -- 85
2020-06-25 20:00:00 15.1 17 Norte 41 Noroeste 1.4 907.3 -- 85
2020-06-25 19:00:00 19.4 15 Noroeste 40 Noroeste 0 905.7 -- 71
2020-06-25 18:00:00 27.2 3 Sur 19 Sudeste 0 903.6 -- 46
2020-06-25 17:00:00 29.9 7 Sudeste 31 Este 0 903.7 -- 31
2020-06-25 16:00:00 29.6 8 Sudeste 26 Sudeste 0 904.5 -- 31
2020-06-25 15:00:00 29 6 Sudeste 30 Sur 0 904.9 -- 35
2020-06-25 14:00:00 28.2 7 Sudeste 25 Este 0 905.3 -- 38
2020-06-25 13:00:00 26.8 7 Sudeste 18 Sur 0 905.7 -- 47
2020-06-25 12:00:00 24.5 5 Sudeste 13 Sur 0 906.4 -- 55
2020-06-25 11:00:00 21.1 2 Norte 8 Noroeste 0 906.4 -- 58
2020-06-25 10:00:00 17.8 0 Calma 10 Este 0 906.8 -- 83
2020-06-25 09:00:00 13.2 4 Norte 12 Norte 0 906.8 -- 97
2020-06-25 08:00:00 11.4 2 Oeste 15 Noroeste 0 907 -- 96
2020-06-25 07:00:00 11.2 3 Noroeste 18 Norte 0 907.1 -- 96
2020-06-25 06:00:00 11.5 3 Noroeste 13 Noroeste 0 907.5 -- 96
2020-06-25 05:00:00 11.4 3 Noroeste 12 Noroeste 0 907.5 -- 96
2020-06-25 04:00:00 11.7 2 Oeste 13 Nordeste 0.2 907.7 -- 96
2020-06-25 03:00:00 11.9 4 Norte 15 Norte 0 907.9 -- 96
2020-06-25 02:00:00 12.6 6 Norte 15 Noroeste 0 908.1 -- 96
2020-06-25 01:00:00 13.2 4 Norte 16 Norte 0 908.5 -- 95
2020-06-25 00:00:00 14.2 6 Norte 19 Norte 0 908.7 -- 95
2020-06-24 23:00:00 14.8 2 Norte 10 Noroeste 0 909.5 -- 96
2020-06-24 22:00:00 15.2 4 Noroeste 10 Norte 1.6 909.8 -- 96
2020-06-24 21:00:00 15.4 3 Norte 11 Norte 0 910.5 -- 95
2020-06-24 20:00:00 15.9 3 Noroeste 18 Norte 0.4 909.2 -- 94
2020-06-24 19:00:00 16.5 10 Norte 22 Noroeste 4.8 909.6 -- 94
2020-06-24 18:00:00 17.5 3 Sudeste 18 Este 6.2 910.6 -- 91
2020-06-24 17:00:00 19.9 2 Sur 32 Noroeste 3.2 908.6 -- 78
2020-06-24 16:00:00 24.6 3 Sudeste 24 Sudeste 0 905.7 -- 58
2020-06-24 15:00:00 29.2 9 Sudeste 30 Sudeste 0 904.8 -- 40
2020-06-24 14:00:00 29.9 9 Sudeste 31 Sur 0 905 -- 41
2020-06-24 13:00:00 28.6 9 Sudeste 25 Este 0 905.1 -- 41
2020-06-24 12:00:00 27.6 5 Sudeste 14 Sudeste 0 905.4 -- 42
2020-06-24 11:00:00 24.8 4 Este 8 Este 0 906 -- 52
2020-06-24 10:00:00 20.1 2 Nordeste 7 Noroeste 0 906.7 -- 70
2020-06-24 09:00:00 14.4 0 Calma 7 Noroeste 0 907 -- 94
2020-06-24 08:00:00 12.8 2 Noroeste 8 Oeste 0 907.3 -- 95
2020-06-24 07:00:00 12.6 2 Oeste 9 Noroeste 0 907.2 -- 94
2020-06-24 06:00:00 12.9 4 Noroeste 10 Noroeste 0 907.2 -- 94
2020-06-24 05:00:00 13.1 2 Oeste 9 Noroeste 0 907.4 -- 94
2020-06-24 04:00:00 13.6 3 Noroeste 9 Noroeste 0 907.7 -- 93
2020-06-24 03:00:00 13.9 2 Noroeste 4 Norte 0 907.9 -- 91
2020-06-24 02:00:00 14.7 0 Calma 6 Noroeste 0 907.7 -- 89
2020-06-24 01:00:00 15.4 0 Calma 5 Noroeste 0 907.7 -- 86
2020-06-24 00:00:00 16.6 2 Noroeste 14 Sudoeste 0 907.3 -- 82
2020-06-23 23:00:00 18 3 Noroeste 10 Norte 0 907 -- 76
2020-06-23 22:00:00 19.6 2 Norte 11 Noroeste 0 906.2 -- 71
2020-06-23 21:00:00 22.3 3 Norte 16 Sur 0 905.6 -- 62
2020-06-23 20:00:00 25.8 5 Sur 20 Este 0 905 -- 45
2020-06-23 19:00:00 29 6 Sudeste 20 Sudoeste 0 904.8 -- 35
2020-06-23 18:00:00 29.6 6 Sudeste 28 Este 0 905.2 -- 35
2020-06-23 17:00:00 29.8 8 Sudeste 27 Sur 0 905.4 -- 34
2020-06-23 16:00:00 29.8 7 Sudeste 23 Sur 0 905.6 -- 37
2020-06-23 15:00:00 29 8 Sudeste 25 Sur 0 906 -- 36
2020-06-23 14:00:00 28.1 8 Sudeste 32 Este 0 906.4 -- 39
2020-06-23 13:00:00 26.9 9 Sudeste 31 Este 0 906.8 -- 42
2020-06-23 12:00:00 25.3 9 Sudeste 28 Este 0 907.1 -- 45
2020-06-23 11:00:00 23.3 4 Este 10 Este 0 907.4 -- 52
2020-06-23 10:00:00 19 2 Norte 7 Noroeste 0 908.1 -- 73
2020-06-23 09:00:00 13.1 3 Norte 8 Noroeste 0 908.6 -- 97
2020-06-23 08:00:00 11.3 2 Norte 6 Norte 0 908.8 -- 96
2020-06-23 07:00:00 11.1 2 Oeste 6 Noroeste 0 908.8 -- 95
2020-06-23 06:00:00 11.5 0 Calma 10 Noroeste 0 908.6 -- 94
2020-06-23 05:00:00 11.8 0 Calma 6 Oeste 0 908.9 -- 94
2020-06-23 04:00:00 12.3 0 Calma 7 Noroeste 0 909.2 -- 93
2020-06-23 03:00:00 12.9 2 Norte 8 Noroeste 0 909.4 -- 92
2020-06-23 02:00:00 13.6 0 Calma 6 Noroeste 0 909.5 -- 91
2020-06-23 01:00:00 14.5 0 Calma 6 Noroeste 0 909.5 -- 88
2020-06-23 00:00:00 15.5 2 Norte 6 Norte 0 909.5 -- 84
2020-06-22 23:00:00 16.9 0 Calma 5 Noroeste 0 909 -- 79
2020-06-22 22:00:00 18.7 0 Calma 6 Noroeste 0 908.1 -- 75
2020-06-22 21:00:00 21.6 2 Noroeste 7 Noroeste 0 907.6 -- 65
2020-06-22 20:00:00 25.4 4 Sur 23 Sur 0 907.2 -- 48
2020-06-22 19:00:00 28.4 6 Sudeste 23 Sudeste 0 907 -- 39
2020-06-22 18:00:00 29.4 6 Sudeste 26 Este 0 907.2 -- 36
2020-06-22 17:00:00 29 7 Sudeste 32 Sudeste 0 907.8 -- 37
2020-06-22 16:00:00 28.3 11 Sudeste 33 Sur 0 908.3 -- 33
2020-06-22 15:00:00 28.3 9 Sudeste 24 Sudeste 0 908.9 -- 33
2020-06-22 14:00:00 27.4 8 Sudeste 30 Este 0 909.5 -- 33
2020-06-22 13:00:00 26.4 6 Sudeste 30 Este 0 909.7 -- 37
2020-06-22 12:00:00 25.1 6 Sudeste 22 Este 0 910 -- 35
2020-06-22 11:00:00 22.7 5 Este 16 Sudeste 0 910.3 -- 40
2020-06-22 10:00:00 18.6 4 Este 17 Sudeste 0 910.9 -- 55
2020-06-22 09:00:00 12.8 2 Nordeste 6 Norte 0 911.1 -- 79
2020-06-22 08:00:00 11.6 3 Noroeste 19 Noroeste 0 911.4 -- 77
2020-06-22 07:00:00 11 4 Noroeste 13 Noroeste 0 911.3 -- 80
2020-06-22 06:00:00 12.5 4 Noroeste 25 Noroeste 0 911.3 -- 72
2020-06-22 05:00:00 13.7 9 Norte 28 Norte 0 911.3 -- 66
2020-06-22 04:00:00 14.4 8 Norte 36 Norte 0 911.9 -- 64
2020-06-22 03:00:00 15.2 12 Norte 27 Norte 0 912.1 -- 61
2020-06-22 02:00:00 15.9 10 Noroeste 39 Noroeste 0 912.7 -- 59
2020-06-22 01:00:00 18.2 14 Noroeste 37 Noroeste 0 912.8 -- 50
2020-06-22 00:00:00 17 9 Noroeste 30 Noroeste 0 913 -- 57
2020-06-21 23:00:00 17.5 12 Noroeste 36 Noroeste 0 912.6 -- 58
2020-06-21 22:00:00 19.5 10 Noroeste 45 Noroeste 0 911.9 -- 52
2020-06-21 21:00:00 20.9 17 Noroeste 44 Noroeste 0 910.9 -- 48
2020-06-21 20:00:00 22.7 11 Noroeste 40 Noroeste 0 909.9 -- 43
2020-06-21 19:00:00 25.1 17 Noroeste 38 Norte 0 909.3 -- 36
2020-06-21 18:00:00 27 14 Noroeste 32 Noroeste 0 908.8 -- 32
2020-06-21 17:00:00 30 5 Sudeste 20 Sur 0 908.8 -- 31
2020-06-21 16:00:00 28.5 7 Sudeste 27 Sudeste 0 909.1 -- 32
2020-06-21 15:00:00 28.3 9 Sudeste 28 Sudeste 0 909.1 -- 31
2020-06-21 14:00:00 27.1 12 Sudeste 25 Sudeste 0 909.5 -- 33
2020-06-21 13:00:00 26.7 6 Sudeste 24 Este 0 909.6 -- 30
2020-06-21 12:00:00 25 6 Sudeste 22 Sudeste 0 909.7 -- 32
2020-06-21 11:00:00 22 8 Este 16 Este 0 910 -- 43
2020-06-21 10:00:00 17.5 3 Norte 10 Oeste 0 910.4 -- 63
2020-06-21 09:00:00 11.5 2 Norte 7 Noroeste 0 910.6 -- 89
2020-06-21 08:00:00 9.8 0 Calma 13 Sudoeste 0 910.8 -- 89
2020-06-21 07:00:00 8.9 0 Calma 13 Noroeste 0 910.6 -- 88
2020-06-21 06:00:00 9.2 0 Calma 13 Noroeste 0 910.4 -- 87
2020-06-21 05:00:00 9.7 3 Noroeste 14 Noroeste 0 910.4 -- 86
2020-06-21 04:00:00 10.2 0 Calma 10 Noroeste 0 910.4 -- 88
2020-06-21 03:00:00 11.4 0 Calma 15 Noroeste 0 910.4 -- 86
2020-06-21 02:00:00 12.7 6 Norte 15 Noroeste 0 910.4 -- 80
2020-06-21 01:00:00 12.9 6 Noroeste 12 Noroeste 0 910.7 -- 86
2020-06-21 00:00:00 13.2 0 Calma 6 Norte 0 910.4 -- 88
2020-06-20 23:00:00 14.6 2 Noroeste 7 Noroeste 0 910.1 -- 85
2020-06-20 22:00:00 16.5 3 Norte 5 Noroeste 0 909.2 -- 79
2020-06-20 21:00:00 19.5 0 Calma 6 Sudeste 0 908.5 -- 69
2020-06-20 20:00:00 23 4 Sudeste 19 Sur 0 907.8 -- 54
2020-06-20 19:00:00 25.9 5 Sudeste 23 Este 0 907.5 -- 43
2020-06-20 18:00:00 26.5 6 Sudeste 31 Este 0 907.8 -- 42
2020-06-20 17:00:00 25.9 9 Sudeste 29 Sudeste 0 907.9 -- 47
2020-06-20 16:00:00 24.7 9 Sudeste 25 Este 0 908.2 -- 50
2020-06-20 15:00:00 25.1 7 Sudeste 24 Este 0 908.6 -- 51
2020-06-20 14:00:00 22.7 6 Sudeste 27 Este 0 908.7 -- 55
2020-06-20 13:00:00 22.1 7 Sudeste 27 Sudeste 0 909.1 -- 56
2020-06-20 12:00:00 21 7 Sudeste 27 Este 0 909 -- 58
2020-06-20 11:00:00 20.9 7 Sudeste 21 Este 0 909.1 -- 57
2020-06-20 10:00:00 16.9 4 Este 7 Este 0 909.4 -- 73
2020-06-20 09:00:00 11.5 3 Norte 6 Norte 0 909.6 -- 97
2020-06-20 08:00:00 9.8 3 Noroeste 6 Nordeste 0 909.6 -- 97
2020-06-20 07:00:00 9.7 3 Norte 5 Noroeste 0 909.4 -- 97
2020-06-20 06:00:00 9.8 0 Calma 4 Noroeste 0 909.3 -- 96
2020-06-20 05:00:00 10.5 0 Calma 6 Noroeste 0 909.3 -- 96
2020-06-20 04:00:00 11.2 2 Noroeste 4 Oeste 0 909.2 -- 96
2020-06-20 03:00:00 11.3 2 Noroeste 7 Noroeste 0 909.4 -- 96
2020-06-20 02:00:00 11.4 2 Noroeste 5 Noroeste 0 909.3 -- 95
2020-06-20 01:00:00 12.3 0 Calma 4 Noroeste 0 909.1 -- 93
2020-06-20 00:00:00 12.9 0 Calma 9 Noroeste 0 908.9 -- 92
2020-06-19 23:00:00 13.5 2 Noroeste 8 Norte 0 908.3 -- 90
2020-06-19 22:00:00 15.1 0 Calma 4 Norte 0 907.4 -- 85
2020-06-19 21:00:00 17.1 0 Calma 8 Sur 0 906.7 -- 80
2020-06-19 20:00:00 19 0 Calma 12 Sudeste 0 906.3 -- 73
2020-06-19 19:00:00 19.4 3 Sur 26 Este 0 906.1 -- 63
2020-06-19 18:00:00 19.1 9 Este 23 Este 0 905.9 -- 61
2020-06-19 17:00:00 19.3 5 Este 23 Este 0 906 -- 60
2020-06-19 16:00:00 19.2 8 Sudeste 27 Este 0 906.2 -- 61
2020-06-19 15:00:00 18.5 10 Este 26 Este 0 906.3 -- 62
2020-06-19 14:00:00 19.7 9 Sudeste 27 Sur 0 906.1 -- 59
2020-06-19 13:00:00 18.6 9 Sudeste 30 Sudeste 0 906.7 -- 63
2020-06-19 12:00:00 17.1 8 Este 23 Este 0 906.6 -- 67
2020-06-19 11:00:00 13.7 3 Nordeste 8 Noroeste 0.2 906.8 -- 85
2020-06-19 10:00:00 13.1 2 Este 9 Oeste 0.2 907 -- 86
2020-06-19 09:00:00 12.3 4 Noroeste 13 Norte 0 906.5 -- 86
2020-06-19 08:00:00 10 0 Calma 12 Noroeste 0 906.4 -- 95
2020-06-19 07:00:00 9.4 2 Noroeste 7 Norte 0 906.1 -- 95
2020-06-19 06:00:00 9.4 2 Noroeste 5 Oeste 0 905.7 -- 95
2020-06-19 05:00:00 9.4 0 Calma 11 Noroeste 0 905.4 -- 95
2020-06-19 04:00:00 9.2 0 Calma 6 Noroeste 0 905.5 -- 95
2020-06-19 03:00:00 9.4 2 Noroeste 5 Noroeste 0 905.5 -- 94
2020-06-19 02:00:00 10.2 2 Noroeste 5 Noroeste 0 905.6 -- 93
2020-06-19 01:00:00 10.8 0 Calma 5 Noroeste 0 905.5 -- 92
2020-06-19 00:00:00 11.5 0 Calma 5 Norte 0 905.2 -- 89
2020-06-18 23:00:00 12.6 0 Calma 5 Norte 0 904.8 -- 86
2020-06-18 22:00:00 13.5 0 Calma 4 Nordeste 0 903.7 -- 82
2020-06-18 21:00:00 15.3 2 Noroeste 9 Sur 0 903 -- 75
2020-06-18 20:00:00 17.7 3 Sudeste 13 Sudeste 0 902.5 -- 59
2020-06-18 19:00:00 18.9 5 Sudeste 17 Sudeste 0 902.1 -- 55
2020-06-18 18:00:00 20.2 5 Sudeste 22 Sudeste 0 902.2 -- 45
2020-06-18 17:00:00 20.4 5 Sudeste 15 Sudeste 0 902.4 -- 48
2020-06-18 16:00:00 18.3 5 Sur 16 Este 0 902.9 -- 60
2020-06-18 15:00:00 17.9 8 Sudeste 26 Sur 0 902.9 -- 53
2020-06-18 14:00:00 16.7 8 Este 30 Este 0 903.1 -- 62
2020-06-18 13:00:00 15.7 5 Sudeste 23 Este 0 903.1 -- 65
2020-06-18 12:00:00 14.2 4 Sudeste 13 Este 0 903 -- 72
2020-06-18 11:00:00 13.3 0 Calma 6 Nordeste 0 903 -- 78
2020-06-18 10:00:00 12 4 Sudeste 10 Norte 0.2 903.2 -- 86
2020-06-18 09:00:00 9.7 3 Norte 10 Norte 0 902.9 -- 97
2020-06-18 08:00:00 8.3 3 Noroeste 5 Noroeste 0 902.9 -- 97
2020-06-18 07:00:00 8 2 Noroeste 5 Este 0 902.7 -- 97
2020-06-18 06:00:00 8 0 Calma 5 Norte 0 902.7 -- 97
2020-06-18 05:00:00 7.7 2 Sudeste 8 Este 0 902.9 -- 97
2020-06-18 04:00:00 7.8 0 Calma 5 Oeste 0 903.2 -- 97
2020-06-18 03:00:00 8.2 3 Noroeste 14 Sudeste 0 903.6 -- 97
2020-06-18 02:00:00 8 0 Calma 6 Oeste 0 903.6 -- 97
2020-06-18 01:00:00 7.6 3 Noroeste 9 Noroeste 0 904.1 -- 96
2020-06-18 00:00:00 7.8 4 Norte 13 Norte 0 904.1 -- 96
2020-06-17 23:00:00 8.5 2 Noroeste 8 Noroeste 0 903.8 -- 94
2020-06-17 22:00:00 9.6 0 Calma 5 Norte 0 903 -- 93
2020-06-17 21:00:00 11.2 0 Calma 4 Noroeste 0 902.5 -- 88
2020-06-17 20:00:00 13.2 2 Noroeste 5 Norte 0 902.1 -- 86
2020-06-17 19:00:00 14 0 Calma 6 Noroeste 0 902.1 -- 80
2020-06-17 18:00:00 15.2 0 Calma 11 Noroeste 0.2 902.4 -- 79
2020-06-17 17:00:00 13.7 2 Sudeste 14 Noroeste 0 903.1 -- 83
2020-06-17 16:00:00 13.3 3 Noroeste 13 Sudoeste 4.6 903.5 -- 86
2020-06-17 15:00:00 11.5 7 Noroeste 22 Noroeste 3.2 903.7 -- 89
2020-06-17 14:00:00 15.9 5 Este 27 Este 0 903 -- 58
2020-06-17 13:00:00 15.8 7 Este 24 Sur 0 903 -- 57
2020-06-17 12:00:00 14.8 6 Sudeste 30 Este 0 902.9 -- 61
2020-06-17 11:00:00 14.5 5 Sudeste 14 Sur 0 903.1 -- 65
2020-06-17 10:00:00 11.4 3 Sudeste 6 Sudeste 0 903.5 -- 80
2020-06-17 09:00:00 9.1 2 Este 9 Noroeste 0 903.6 -- 93
2020-06-17 08:00:00 7.6 3 Noroeste 9 Norte 0 903.6 -- 97
2020-06-17 07:00:00 6.1 2 Norte 14 Nordeste 0 903.4 -- 96
2020-06-17 06:00:00 6.4 2 Norte 13 Sudoeste 0 903.2 -- 96
2020-06-17 05:00:00 7.2 0 Calma 13 Sudoeste 0 903.1 -- 96
2020-06-17 04:00:00 8.1 0 Calma 9 Norte 0 903.6 -- 96
2020-06-17 03:00:00 8.5 0 Calma 5 Noroeste 0 904 -- 96
2020-06-17 02:00:00 8.6 2 Norte 6 Norte 0 904.3 -- 96
2020-06-17 01:00:00 8.9 2 Noroeste 5 Noroeste 0 904.6 -- 95
2020-06-17 00:00:00 9.4 2 Noroeste 7 Noroeste 0 905 -- 94
2020-06-16 23:00:00 9.4 2 Noroeste 19 Norte 0 905 -- 93
2020-06-16 22:00:00 10.5 3 Noroeste 7 Norte 0 904.4 -- 92
2020-06-16 21:00:00 12.8 0 Calma 6 Noroeste 0 903.7 -- 85
2020-06-16 20:00:00 14 0 Calma 17 Noroeste 0 903.7 -- 82
2020-06-16 19:00:00 15.2 0 Calma 8 Oeste 0 903.6 -- 81
2020-06-16 18:00:00 14.2 3 Noroeste 37 Noroeste 3.4 904.1 -- 83
2020-06-16 17:00:00 14.8 5 Sur 24 Este 0 903.6 -- 71
2020-06-16 16:00:00 15.4 11 Este 29 Este 0 903.7 -- 72
2020-06-16 15:00:00 15.6 6 Sudeste 23 Este 1.2 904.1 -- 77
2020-06-16 14:00:00 13.7 5 Sudeste 26 Este 0.2 905 -- 82
2020-06-16 13:00:00 13.9 4 Sudeste 19 Sudeste 0.2 905.1 -- 81
2020-06-16 12:00:00 13.6 5 Sudeste 20 Este 0 905.4 -- 81
2020-06-16 11:00:00 13.6 4 Sur 18 Sudeste 0.2 905.6 -- 81
2020-06-16 10:00:00 12.6 3 Sudeste 12 Sudeste 0.4 906.1 -- 88
2020-06-16 09:00:00 12.4 3 Noroeste 14 Sudoeste 0 906 -- 89
2020-06-16 08:00:00 11.5 2 Noroeste 6 Noroeste 0 906.1 -- 94
2020-06-16 07:00:00 10.9 2 Noroeste 7 Norte 0 905.8 -- 93
2020-06-16 06:00:00 10.9 2 Este 5 Sur 0 905.7 -- 91
2020-06-16 05:00:00 11 0 Calma 13 Sudeste 0 905.7 -- 90
2020-06-16 04:00:00 11.3 0 Calma 9 Norte 0 906.1 -- 87
2020-06-16 03:00:00 11.4 0 Calma 5 Oeste 0 906.5 -- 87
2020-06-16 02:00:00 11.9 3 Nordeste 10 Norte 0 906.9 -- 83
2020-06-16 01:00:00 12.4 4 Norte 15 Norte 0 907.1 -- 76
2020-06-16 00:00:00 12.2 2 Noroeste 7 Noroeste 0 907.1 -- 84